Time,TemperatureF,DewpointF,PressureIn,WindDirection,WindDirectionDegrees,WindSpeedMPH,WindSpeedGustMPH,Humidity,HourlyPrecipIn,Conditions,Clouds,dailyrainin,SolarRadiationWatts/m^2,SoftwareType,DateUTC
2013-07-28 00:22:00,54.0,53.0,-100.00,NNE,18,0.0,0.0,96,0.00,,,0.00,1.000000,,2013-07-28 08:22:00,
2013-07-28 00:33:00,54.0,53.0,-100.00,NNE,18,0.0,0.0,96,0.00,,,0.00,1.000000,,2013-07-28 08:33:00,
2013-07-28 00:42:00,54.0,53.0,-100.00,NNE,18,0.0,0.0,96,0.00,,,0.00,1.000000,,2013-07-28 08:42:00,
2013-07-28 00:53:00,54.0,53.0,-100.00,NNE,18,0.0,0.0,96,0.00,,,0.00,1.000000,,2013-07-28 08:53:00,
2013-07-28 01:22:00,53.0,53.0,-100.00,NNE,17,0.0,0.0,99,0.00,,,0.00,0.000000,,2013-07-28 09:22:00,
2013-07-28 01:32:00,53.0,53.0,-100.00,NNE,17,0.0,0.0,99,0.00,,,0.00,0.000000,,2013-07-28 09:32:00,
2013-07-28 01:43:00,53.0,53.0,-100.00,NNE,17,0.0,0.0,99,0.00,,,0.00,0.000000,,2013-07-28 09:43:00,
2013-07-28 01:53:00,53.0,53.0,-100.00,NNE,17,0.0,0.0,99,0.00,,,0.00,0.000000,,2013-07-28 09:53:00,
2013-07-28 02:22:00,54.0,54.0,-100.00,NNE,18,0.0,0.0,100,0.00,,,0.00,0.000000,,2013-07-28 10:22:00,
2013-07-28 02:32:00,54.0,54.0,-100.00,NNE,18,0.0,0.0,100,0.00,,,0.00,0.000000,,2013-07-28 10:32:00,
2013-07-28 02:42:00,54.0,54.0,-100.00,NNE,18,0.0,0.0,100,0.00,,,0.00,0.000000,,2013-07-28 10:42:00,
2013-07-28 02:52:00,54.0,54.0,-100.00,NNE,18,0.0,0.0,100,0.00,,,0.00,0.000000,,2013-07-28 10:52:00,
2013-07-28 03:22:00,51.0,51.0,-100.00,NNE,17,0.0,0.0,99,0.00,,,0.00,0.000000,,2013-07-28 11:22:00,
2013-07-28 03:33:00,51.0,51.0,-100.00,NNE,17,0.0,0.0,99,0.00,,,0.00,0.000000,,2013-07-28 11:33:00,
2013-07-28 03:43:00,51.0,51.0,-100.00,NNE,17,0.0,0.0,99,0.00,,,0.00,0.000000,,2013-07-28 11:43:00,
2013-07-28 03:53:00,51.0,51.0,-100.00,NNE,17,0.0,0.0,99,0.00,,,0.00,0.000000,,2013-07-28 11:53:00,
2013-07-28 04:22:00,49.0,49.0,-100.00,NNE,18,0.0,0.0,100,0.00,,,0.00,0.000000,,2013-07-28 12:22:00,
2013-07-28 04:33:00,49.0,49.0,-100.00,NNE,18,0.0,0.0,100,0.00,,,0.00,0.000000,,2013-07-28 12:33:00,
2013-07-28 04:43:00,49.0,49.0,-100.00,NNE,18,0.0,0.0,100,0.00,,,0.00,0.000000,,2013-07-28 12:43:00,
2013-07-28 04:53:00,49.0,49.0,-100.00,NNE,18,0.0,0.0,100,0.00,,,0.00,0.000000,,2013-07-28 12:53:00,
2013-07-28 05:22:00,48.0,48.0,-100.00,NNE,15,0.0,0.0,100,0.00,,,0.00,0.000000,,2013-07-28 13:22:00,
2013-07-28 05:32:00,48.0,48.0,-100.00,NNE,15,0.0,0.0,100,0.00,,,0.00,0.000000,,2013-07-28 13:32:00,
2013-07-28 05:43:00,48.0,48.0,-100.00,NNE,15,0.0,0.0,100,0.00,,,0.00,0.000000,,2013-07-28 13:43:00,
2013-07-28 05:52:00,48.0,48.0,-100.00,NNE,15,0.0,0.0,100,0.00,,,0.00,0.000000,,2013-07-28 13:52:00,
2013-07-28 06:33:00,47.0,47.0,-100.00,NNE,17,0.0,0.0,100,0.00,,,0.00,3.000000,,2013-07-28 14:33:00,
2013-07-28 06:43:00,47.0,47.0,-100.00,NNE,17,0.0,0.0,100,0.00,,,0.00,3.000000,,2013-07-28 14:43:00,
2013-07-28 06:53:00,47.0,47.0,-100.00,NNE,17,0.0,0.0,100,0.00,,,0.00,3.000000,,2013-07-28 14:53:00,
2013-07-28 07:32:00,47.0,47.0,-100.00,NNE,33,0.0,0.0,100,0.00,,,0.00,10.000000,,2013-07-28 15:32:00,
2013-07-28 07:43:00,47.0,47.0,-100.00,NNE,33,0.0,0.0,100,0.00,,,0.00,10.000000,,2013-07-28 15:43:00,
2013-07-28 07:53:00,47.0,47.0,-100.00,NNE,33,0.0,0.0,100,0.00,,,0.00,10.000000,,2013-07-28 15:53:00,
2013-07-28 08:22:00,51.0,51.0,-100.00,NE,46,0.0,0.0,100,0.00,,,0.00,41.000000,,2013-07-28 16:22:00,
2013-07-28 08:33:00,51.0,51.0,-100.00,NE,46,0.0,0.0,100,0.00,,,0.00,41.000000,,2013-07-28 16:33:00,
2013-07-28 08:43:00,51.0,51.0,-100.00,NE,46,0.0,0.0,100,0.00,,,0.00,41.000000,,2013-07-28 16:43:00,
2013-07-28 08:52:00,51.0,51.0,-100.00,NE,46,0.0,0.0,100,0.00,,,0.00,41.000000,,2013-07-28 16:52:00,
2013-07-28 09:43:00,56.0,56.0,-100.00,SSE,155,0.0,0.0,100,0.00,,,0.00,87.000000,,2013-07-28 17:43:00,
2013-07-28 09:53:00,56.0,56.0,-100.00,SSE,155,0.0,0.0,100,0.00,,,0.00,87.000000,,2013-07-28 17:53:00,
2013-07-28 10:22:00,62.0,59.0,-100.00,West,275,0.0,2.0,89,0.00,,,0.00,75.000000,,2013-07-28 18:22:00,
2013-07-28 10:32:00,62.0,59.0,-100.00,West,275,0.0,2.0,89,0.00,,,0.00,75.000000,,2013-07-28 18:32:00,
2013-07-28 10:43:00,62.0,59.0,-100.00,West,275,0.0,2.0,89,0.00,,,0.00,75.000000,,2013-07-28 18:43:00,
2013-07-28 10:52:00,62.0,59.0,-100.00,West,275,0.0,2.0,89,0.00,,,0.00,75.000000,,2013-07-28 18:52:00,
2013-07-28 11:22:00,71.0,61.0,-100.00,West,264,1.0,3.0,71,0.00,,,0.00,156.000000,,2013-07-28 19:22:00,
2013-07-28 11:32:00,71.0,61.0,-100.00,West,264,1.0,3.0,71,0.00,,,0.00,156.000000,,2013-07-28 19:32:00,
2013-07-28 11:43:00,71.0,61.0,-100.00,West,264,1.0,3.0,71,0.00,,,0.00,156.000000,,2013-07-28 19:43:00,
2013-07-28 11:52:00,71.0,61.0,-100.00,West,264,1.0,3.0,71,0.00,,,0.00,156.000000,,2013-07-28 19:52:00,
2013-07-28 12:52:00,76.0,60.0,-100.00,West,278,0.0,2.0,58,0.00,,,0.00,694.000000,,2013-07-28 20:52:00,
2013-07-28 14:43:00,81.0,59.0,-100.00,West,268,1.0,3.0,47,-99.99,,,0.00,823.000000,,2013-07-28 22:43:00,
2013-07-28 16:52:00,83.0,58.0,-100.00,SSW,199,3.0,7.0,43,-99.99,,,0.00,773.000000,,2013-07-29 00:52:00,
2013-07-28 17:25:00,78.0,58.0,-100.00,South,174,5.0,11.0,50,-99.99,,,0.00,689.000000,,2013-07-29 01:25:00,
2013-07-28 17:34:00,78.0,58.0,-100.00,South,174,5.0,11.0,50,-99.99,,,0.00,689.000000,,2013-07-29 01:34:00,
2013-07-28 17:54:00,78.0,58.0,-100.00,South,174,5.0,11.0,50,-99.99,,,0.00,689.000000,,2013-07-29 01:54:00,
2013-07-28 18:35:00,72.0,57.0,-100.00,SSE,159,3.0,11.0,60,0.00,,,0.00,104.000000,,2013-07-29 02:35:00,
2013-07-28 18:45:00,72.0,57.0,-100.00,SSE,159,3.0,11.0,60,0.00,,,0.00,104.000000,,2013-07-29 02:45:00,
2013-07-28 18:54:00,72.0,57.0,-100.00,SSE,159,3.0,11.0,60,0.00,,,0.00,104.000000,,2013-07-29 02:54:00,
2013-07-28 19:22:00,72.0,56.0,-100.00,South,187,4.0,10.0,57,0.00,,,0.00,348.000000,,2013-07-29 03:22:00,
2013-07-28 19:35:00,72.0,56.0,-100.00,South,187,4.0,10.0,57,0.00,,,0.00,348.000000,,2013-07-29 03:35:00,
2013-07-28 19:45:00,72.0,56.0,-100.00,South,187,4.0,10.0,57,0.00,,,0.00,348.000000,,2013-07-29 03:45:00,
2013-07-28 19:53:00,72.0,56.0,-100.00,South,187,4.0,10.0,57,0.00,,,0.00,348.000000,,2013-07-29 03:53:00,
2013-07-28 20:22:00,67.0,55.0,-100.00,South,189,3.0,12.0,66,0.00,,,0.00,112.000000,,2013-07-29 04:22:00,
2013-07-28 20:32:00,67.0,55.0,-100.00,South,189,3.0,12.0,66,0.00,,,0.00,112.000000,,2013-07-29 04:32:00,
2013-07-28 20:43:00,67.0,55.0,-100.00,South,189,3.0,12.0,66,0.00,,,0.00,112.000000,,2013-07-29 04:43:00,
2013-07-28 20:53:00,67.0,55.0,-100.00,South,189,3.0,12.0,66,0.00,,,0.00,112.000000,,2013-07-29 04:53:00,
2013-07-28 21:22:00,64.0,55.0,-100.00,SSE,161,3.0,10.0,72,0.00,,,0.00,70.000000,,2013-07-29 05:22:00,
2013-07-28 21:32:00,64.0,55.0,-100.00,SSE,161,3.0,10.0,72,0.00,,,0.00,70.000000,,2013-07-29 05:32:00,
2013-07-28 21:42:00,64.0,55.0,-100.00,SSE,161,3.0,10.0,72,0.00,,,0.00,70.000000,,2013-07-29 05:42:00,
2013-07-28 21:53:00,64.0,55.0,-100.00,SSE,161,3.0,10.0,72,0.00,,,0.00,70.000000,,2013-07-29 05:53:00,
2013-07-28 22:22:00,61.0,55.0,-100.00,SSW,194,2.0,10.0,81,0.00,,,0.00,11.000000,,2013-07-29 06:22:00,
2013-07-28 22:32:00,61.0,55.0,-100.00,SSW,194,2.0,10.0,81,0.00,,,0.00,11.000000,,2013-07-29 06:32:00,
2013-07-28 22:43:00,61.0,55.0,-100.00,SSW,194,2.0,10.0,81,0.00,,,0.00,11.000000,,2013-07-29 06:43:00,
2013-07-28 22:52:00,61.0,55.0,-100.00,SSW,194,2.0,10.0,81,0.00,,,0.00,11.000000,,2013-07-29 06:52:00,
2013-07-28 23:33:00,59.0,55.0,-100.00,SE,142,2.0,6.0,86,0.00,,,0.00,5.000000,,2013-07-29 07:33:00,
2013-07-28 23:43:00,59.0,55.0,-100.00,SE,142,2.0,6.0,86,0.00,,,0.00,5.000000,,2013-07-29 07:43:00,
2013-07-28 23:53:00,59.0,55.0,-100.00,SE,142,2.0,6.0,86,0.00,,,0.00,5.000000,,2013-07-29 07:53:00,